sensor_id;sensor_type;location;lat;lon;timestamp;pressure;altitude;pressure_sealevel;temperature;humidity
25526;BME280;13424;48.424;11.258;2022-07-01T00:00:53;95451.25;;;20.80;83.83
25526;BME280;13424;48.424;11.258;2022-07-01T00:03:19;95474.84;;;20.79;82.71
25526;BME280;13424;48.424;11.258;2022-07-01T00:05:45;95472.00;;;20.84;82.84
25526;BME280;13424;48.424;11.258;2022-07-01T00:08:11;95473.59;;;20.63;82.55
25526;BME280;13424;48.424;11.258;2022-07-01T00:10:37;95465.59;;;20.80;81.58
25526;BME280;13424;48.424;11.258;2022-07-01T00:13:44;95481.38;;;20.78;81.00
25526;BME280;13424;48.424;11.258;2022-07-01T00:16:10;95470.16;;;20.71;82.04
25526;BME280;13424;48.424;11.258;2022-07-01T00:18:36;95467.94;;;20.73;81.06
25526;BME280;13424;48.424;11.258;2022-07-01T00:21:02;95469.19;;;20.53;80.85
25526;BME280;13424;48.424;11.258;2022-07-01T00:23:30;95470.03;;;20.99;79.75
25526;BME280;13424;48.424;11.258;2022-07-01T00:25:57;95472.19;;;20.66;80.33
25526;BME280;13424;48.424;11.258;2022-07-01T00:32:49;95486.28;;;20.76;79.95
25526;BME280;13424;48.424;11.258;2022-07-01T00:35:15;95494.66;;;20.66;79.90
25526;BME280;13424;48.424;11.258;2022-07-01T00:37:41;95497.22;;;20.49;80.31
25526;BME280;13424;48.424;11.258;2022-07-01T00:40:08;95500.41;;;20.51;80.77
25526;BME280;13424;48.424;11.258;2022-07-01T00:42:39;95497.56;;;20.70;80.00
25526;BME280;13424;48.424;11.258;2022-07-01T00:45:08;95498.47;;;20.65;80.12
25526;BME280;13424;48.424;11.258;2022-07-01T00:47:40;95510.97;;;20.39;80.03
25526;BME280;13424;48.424;11.258;2022-07-01T00:50:09;95515.56;;;20.38;77.98
25526;BME280;13424;48.424;11.258;2022-07-01T00:52:36;95516.28;;;20.44;77.65
25526;BME280;13424;48.424;11.258;2022-07-01T00:55:10;95518.56;;;20.64;77.26
25526;BME280;13424;48.424;11.258;2022-07-01T00:57:40;95516.47;;;20.33;78.02
25526;BME280;13424;48.424;11.258;2022-07-01T01:00:17;95508.94;;;20.44;78.47
25526;BME280;13424;48.424;11.258;2022-07-01T01:03:01;95514.38;;;20.30;78.90
25526;BME280;13424;48.424;11.258;2022-07-01T01:05:27;95494.03;;;20.19;78.34
25526;BME280;13424;48.424;11.258;2022-07-01T01:07:53;95498.44;;;20.15;79.01
25526;BME280;13424;48.424;11.258;2022-07-01T01:10:20;95499.13;;;20.48;77.96
25526;BME280;13424;48.424;11.258;2022-07-01T01:12:48;95500.31;;;20.28;78.67
25526;BME280;13424;48.424;11.258;2022-07-01T01:15:19;95495.28;;;20.35;78.19
25526;BME280;13424;48.424;11.258;2022-07-01T01:17:45;95496.63;;;20.24;78.51
25526;BME280;13424;48.424;11.258;2022-07-01T01:20:56;95495.13;;;20.18;78.46
25526;BME280;13424;48.424;11.258;2022-07-01T01:23:22;95496.97;;;20.59;77.75
25526;BME280;13424;48.424;11.258;2022-07-01T01:29:40;95494.81;;;20.33;78.74
25526;BME280;13424;48.424;11.258;2022-07-01T01:32:07;95503.03;;;20.28;78.99
25526;BME280;13424;48.424;11.258;2022-07-01T01:34:36;95490.91;;;20.12;78.92
25526;BME280;13424;48.424;11.258;2022-07-01T01:37:04;95494.41;;;20.13;79.17
25526;BME280;13424;48.424;11.258;2022-07-01T01:39:37;95499.94;;;20.21;79.04
25526;BME280;13424;48.424;11.258;2022-07-01T01:42:05;95499.44;;;20.19;79.48
25526;BME280;13424;48.424;11.258;2022-07-01T01:44:32;95495.09;;;20.46;78.23
25526;BME280;13424;48.424;11.258;2022-07-01T01:46:58;95499.31;;;20.52;78.46
25526;BME280;13424;48.424;11.258;2022-07-01T01:49:25;95498.31;;;20.48;78.44
25526;BME280;13424;48.424;11.258;2022-07-01T01:51:52;95498.63;;;20.46;78.46
25526;BME280;13424;48.424;11.258;2022-07-01T01:54:20;95503.31;;;20.41;79.01
25526;BME280;13424;48.424;11.258;2022-07-01T01:56:46;95507.34;;;20.57;78.29
25526;BME280;13424;48.424;11.258;2022-07-01T02:00:21;95494.69;;;20.52;78.41
25526;BME280;13424;48.424;11.258;2022-07-01T02:02:47;95493.63;;;20.12;79.23
25526;BME280;13424;48.424;11.258;2022-07-01T02:05:14;95501.09;;;20.43;78.60
25526;BME280;13424;48.424;11.258;2022-07-01T02:07:41;95502.16;;;20.47;78.71
25526;BME280;13424;48.424;11.258;2022-07-01T02:10:08;95505.53;;;20.39;79.21
25526;BME280;13424;48.424;11.258;2022-07-01T02:12:34;95512.19;;;20.46;78.91
25526;BME280;13424;48.424;11.258;2022-07-01T02:15:00;95518.41;;;20.47;79.04
25526;BME280;13424;48.424;11.258;2022-07-01T02:17:27;95528.63;;;20.50;79.39
25526;BME280;13424;48.424;11.258;2022-07-01T02:19:53;95534.66;;;20.47;79.94
25526;BME280;13424;48.424;11.258;2022-07-01T02:22:19;95548.69;;;20.49;80.09
25526;BME280;13424;48.424;11.258;2022-07-01T02:24:45;95555.38;;;20.51;80.54
25526;BME280;13424;48.424;11.258;2022-07-01T02:27:11;95560.09;;;20.46;80.67
25526;BME280;13424;48.424;11.258;2022-07-01T02:29:39;95560.50;;;20.53;80.66
25526;BME280;13424;48.424;11.258;2022-07-01T02:32:06;95565.84;;;20.44;80.47
25526;BME280;13424;48.424;11.258;2022-07-01T02:34:32;95556.91;;;20.44;81.10
25526;BME280;13424;48.424;11.258;2022-07-01T02:37:41;95566.72;;;20.40;80.87
25526;BME280;13424;48.424;11.258;2022-07-01T02:40:09;95567.22;;;20.42;80.53
25526;BME280;13424;48.424;11.258;2022-07-01T02:42:35;95568.31;;;20.27;81.42
25526;BME280;13424;48.424;11.258;2022-07-01T02:45:05;95567.41;;;20.04;81.96
25526;BME280;13424;48.424;11.258;2022-07-01T02:47:37;95566.53;;;20.08;82.76
25526;BME280;13424;48.424;11.258;2022-07-01T02:50:09;95567.75;;;20.16;82.66
25526;BME280;13424;48.424;11.258;2022-07-01T02:52:39;95570.75;;;20.15;82.27
25526;BME280;13424;48.424;11.258;2022-07-01T02:55:09;95577.53;;;20.12;83.10
25526;BME280;13424;48.424;11.258;2022-07-01T02:57:36;95578.25;;;20.18;82.67
25526;BME280;13424;48.424;11.258;2022-07-01T03:01:14;95584.56;;;20.13;82.81
25526;BME280;13424;48.424;11.258;2022-07-01T03:03:41;95595.41;;;19.99;83.35
25526;BME280;13424;48.424;11.258;2022-07-01T03:06:07;95586.84;;;20.06;82.82
25526;BME280;13424;48.424;11.258;2022-07-01T03:08:33;95586.00;;;20.24;82.57
25526;BME280;13424;48.424;11.258;2022-07-01T03:10:59;95576.72;;;19.98;83.48
25526;BME280;13424;48.424;11.258;2022-07-01T03:13:25;95584.34;;;19.96;83.32
25526;BME280;13424;48.424;11.258;2022-07-01T03:15:51;95581.75;;;19.91;84.13
25526;BME280;13424;48.424;11.258;2022-07-01T03:18:17;95591.78;;;20.04;84.07
25526;BME280;13424;48.424;11.258;2022-07-01T03:21:49;95591.00;;;20.17;83.79
25526;BME280;13424;48.424;11.258;2022-07-01T03:24:16;95595.00;;;20.20;83.22
25526;BME280;13424;48.424;11.258;2022-07-01T03:26:42;95589.19;;;19.99;84.39
25526;BME280;13424;48.424;11.258;2022-07-01T03:29:09;95585.38;;;20.00;83.95
25526;BME280;13424;48.424;11.258;2022-07-01T03:31:35;95588.19;;;20.22;83.23
25526;BME280;13424;48.424;11.258;2022-07-01T03:34:01;95585.78;;;20.34;82.94
25526;BME280;13424;48.424;11.258;2022-07-01T03:36:27;95598.03;;;20.32;83.35
25526;BME280;13424;48.424;11.258;2022-07-01T03:38:53;95594.13;;;20.38;83.27
25526;BME280;13424;48.424;11.258;2022-07-01T03:41:22;95586.19;;;20.42;82.93
25526;BME280;13424;48.424;11.258;2022-07-01T03:43:48;95587.78;;;20.43;83.00
25526;BME280;13424;48.424;11.258;2022-07-01T03:46:15;95590.44;;;20.48;82.82
25526;BME280;13424;48.424;11.258;2022-07-01T03:48:41;95593.13;;;20.48;82.63
25526;BME280;13424;48.424;11.258;2022-07-01T03:51:07;95578.78;;;20.47;83.04
25526;BME280;13424;48.424;11.258;2022-07-01T03:53:34;95578.16;;;20.50;83.11
25526;BME280;13424;48.424;11.258;2022-07-01T03:56:18;95581.59;;;20.56;82.78
25526;BME280;13424;48.424;11.258;2022-07-01T03:58:44;95572.06;;;20.45;83.00
25526;BME280;13424;48.424;11.258;2022-07-01T04:01:10;95568.03;;;20.70;82.64
25526;BME280;13424;48.424;11.258;2022-07-01T04:03:40;95571.00;;;20.68;82.36
25526;BME280;13424;48.424;11.258;2022-07-01T04:06:06;95575.72;;;20.76;81.50
25526;BME280;13424;48.424;11.258;2022-07-01T04:08:33;95577.13;;;20.87;81.79
25526;BME280;13424;48.424;11.258;2022-07-01T04:11:00;95569.66;;;20.93;81.91
25526;BME280;13424;48.424;11.258;2022-07-01T04:13:26;95575.66;;;21.04;81.26
25526;BME280;13424;48.424;11.258;2022-07-01T04:15:53;95581.03;;;21.17;80.70
25526;BME280;13424;48.424;11.258;2022-07-01T04:18:21;95565.69;;;21.13;81.04
25526;BME280;13424;48.424;11.258;2022-07-01T04:20:47;95566.03;;;20.98;80.95
25526;BME280;13424;48.424;11.258;2022-07-01T04:23:33;95570.16;;;20.95;81.04
25526;BME280;13424;48.424;11.258;2022-07-01T04:25:59;95572.25;;;20.98;80.49
25526;BME280;13424;48.424;11.258;2022-07-01T04:28:37;95580.94;;;21.09;80.59
25526;BME280;13424;48.424;11.258;2022-07-01T04:31:03;95589.22;;;21.04;80.16
25526;BME280;13424;48.424;11.258;2022-07-01T04:33:29;95599.38;;;20.84;81.31
25526;BME280;13424;48.424;11.258;2022-07-01T04:35:55;95596.63;;;21.12;80.39
25526;BME280;13424;48.424;11.258;2022-07-01T04:38:21;95585.88;;;21.07;80.76
25526;BME280;13424;48.424;11.258;2022-07-01T04:40:47;95579.47;;;21.03;80.89
25526;BME280;13424;48.424;11.258;2022-07-01T04:43:31;95586.69;;;21.07;81.03
25526;BME280;13424;48.424;11.258;2022-07-01T04:45:57;95585.84;;;21.21;79.95
25526;BME280;13424;48.424;11.258;2022-07-01T04:48:23;95584.63;;;21.27;80.32
25526;BME280;13424;48.424;11.258;2022-07-01T04:50:49;95574.44;;;21.10;80.48
25526;BME280;13424;48.424;11.258;2022-07-01T04:53:18;95567.03;;;21.24;80.24
25526;BME280;13424;48.424;11.258;2022-07-01T04:55:44;95573.81;;;21.13;81.02
25526;BME280;13424;48.424;11.258;2022-07-01T04:58:13;95562.88;;;21.18;80.84
25526;BME280;13424;48.424;11.258;2022-07-01T05:00:39;95558.81;;;21.29;80.06
25526;BME280;13424;48.424;11.258;2022-07-01T05:03:05;95578.50;;;21.21;80.34
25526;BME280;13424;48.424;11.258;2022-07-01T05:05:31;95609.22;;;21.30;80.87
25526;BME280;13424;48.424;11.258;2022-07-01T05:07:57;95636.47;;;21.25;82.58
25526;BME280;13424;48.424;11.258;2022-07-01T05:10:23;95630.22;;;21.25;83.28
25526;BME280;13424;48.424;11.258;2022-07-01T05:12:49;95635.78;;;21.06;84.25
25526;BME280;13424;48.424;11.258;2022-07-01T05:15:15;95639.06;;;21.16;82.77
25526;BME280;13424;48.424;11.258;2022-07-01T05:17:41;95639.31;;;20.92;83.36
25526;BME280;13424;48.424;11.258;2022-07-01T05:20:39;95643.69;;;21.30;81.94
25526;BME280;13424;48.424;11.258;2022-07-01T05:23:25;95636.09;;;21.18;82.54
25526;BME280;13424;48.424;11.258;2022-07-01T05:25:51;95621.06;;;20.98;83.13
25526;BME280;13424;48.424;11.258;2022-07-01T05:28:17;95631.03;;;21.25;82.53
25526;BME280;13424;48.424;11.258;2022-07-01T05:35:08;95631.75;;;21.17;82.35
25526;BME280;13424;48.424;11.258;2022-07-01T05:37:34;95630.53;;;20.73;82.48
25526;BME280;13424;48.424;11.258;2022-07-01T05:40:00;95637.53;;;21.02;81.00
25526;BME280;13424;48.424;11.258;2022-07-01T05:42:26;95639.53;;;20.41;83.32
25526;BME280;13424;48.424;11.258;2022-07-01T05:44:52;95646.00;;;20.59;81.83
25526;BME280;13424;48.424;11.258;2022-07-01T05:47:18;95654.69;;;20.42;80.90
25526;BME280;13424;48.424;11.258;2022-07-01T05:49:45;95653.69;;;20.24;81.28
25526;BME280;13424;48.424;11.258;2022-07-01T05:52:11;95656.94;;;20.54;81.24
25526;BME280;13424;48.424;11.258;2022-07-01T05:54:37;95653.19;;;20.36;81.66
25526;BME280;13424;48.424;11.258;2022-07-01T05:57:04;95663.03;;;20.32;82.80
25526;BME280;13424;48.424;11.258;2022-07-01T05:59:30;95670.78;;;20.06;83.94
25526;BME280;13424;48.424;11.258;2022-07-01T06:01:56;95676.25;;;19.87;84.43
25526;BME280;13424;48.424;11.258;2022-07-01T06:04:22;95671.63;;;20.20;83.77
25526;BME280;13424;48.424;11.258;2022-07-01T06:06:48;95678.75;;;20.30;83.31
25526;BME280;13424;48.424;11.258;2022-07-01T06:09:14;95678.72;;;20.02;82.61
25526;BME280;13424;48.424;11.258;2022-07-01T06:11:40;95690.69;;;20.15;82.93
25526;BME280;13424;48.424;11.258;2022-07-01T06:14:06;95688.91;;;19.92;84.14
25526;BME280;13424;48.424;11.258;2022-07-01T06:16:32;95708.69;;;20.06;83.08
25526;BME280;13424;48.424;11.258;2022-07-01T06:18:58;95712.75;;;19.33;85.64
25526;BME280;13424;48.424;11.258;2022-07-01T06:21:25;95698.66;;;19.55;85.00
25526;BME280;13424;48.424;11.258;2022-07-01T06:24:03;95719.25;;;19.32;85.99
25526;BME280;13424;48.424;11.258;2022-07-01T06:26:29;95712.16;;;18.99;86.57
25526;BME280;13424;48.424;11.258;2022-07-01T06:28:55;95722.03;;;19.08;86.21
25526;BME280;13424;48.424;11.258;2022-07-01T06:31:21;95727.63;;;18.69;87.04
25526;BME280;13424;48.424;11.258;2022-07-01T06:33:58;95719.34;;;18.31;87.49
25526;BME280;13424;48.424;11.258;2022-07-01T06:36:24;95725.97;;;18.44;86.28
25526;BME280;13424;48.424;11.258;2022-07-01T06:38:56;95726.31;;;18.61;86.61
25526;BME280;13424;48.424;11.258;2022-07-01T06:41:22;95726.50;;;18.94;85.00
25526;BME280;13424;48.424;11.258;2022-07-01T06:44:00;95730.13;;;19.08;84.70
25526;BME280;13424;48.424;11.258;2022-07-01T06:46:28;95736.38;;;18.56;86.97
25526;BME280;13424;48.424;11.258;2022-07-01T06:48:54;95740.75;;;18.81;86.40
25526;BME280;13424;48.424;11.258;2022-07-01T06:51:22;95740.31;;;18.68;85.83
25526;BME280;13424;48.424;11.258;2022-07-01T06:53:53;95745.13;;;18.19;88.93
25526;BME280;13424;48.424;11.258;2022-07-01T06:56:19;95748.16;;;18.41;86.93
25526;BME280;13424;48.424;11.258;2022-07-01T06:58:46;95755.94;;;18.72;86.30
25526;BME280;13424;48.424;11.258;2022-07-01T07:01:12;95767.13;;;18.31;85.48
25526;BME280;13424;48.424;11.258;2022-07-01T07:03:38;95763.66;;;18.54;83.86
25526;BME280;13424;48.424;11.258;2022-07-01T07:06:04;95756.78;;;17.80;84.15
25526;BME280;13424;48.424;11.258;2022-07-01T07:08:31;95765.69;;;17.75;83.42
25526;BME280;13424;48.424;11.258;2022-07-01T07:10:59;95762.75;;;17.67;81.66
25526;BME280;13424;48.424;11.258;2022-07-01T07:17:50;95771.69;;;17.13;83.44
25526;BME280;13424;48.424;11.258;2022-07-01T07:20:16;95771.53;;;18.22;79.95
25526;BME280;13424;48.424;11.258;2022-07-01T07:22:43;95769.69;;;18.46;77.95
25526;BME280;13424;48.424;11.258;2022-07-01T07:25:09;95768.31;;;18.20;76.51
25526;BME280;13424;48.424;11.258;2022-07-01T07:27:35;95774.47;;;18.54;77.50
25526;BME280;13424;48.424;11.258;2022-07-01T07:30:01;95791.84;;;19.01;75.93
25526;BME280;13424;48.424;11.258;2022-07-01T07:32:29;95783.34;;;18.31;76.32
25526;BME280;13424;48.424;11.258;2022-07-01T07:34:55;95792.41;;;18.74;75.50
25526;BME280;13424;48.424;11.258;2022-07-01T07:37:21;95801.72;;;18.87;76.79
25526;BME280;13424;48.424;11.258;2022-07-01T07:44:12;95798.03;;;18.20;77.55
25526;BME280;13424;48.424;11.258;2022-07-01T07:46:39;95811.19;;;18.26;77.02
25526;BME280;13424;48.424;11.258;2022-07-01T07:49:05;95813.84;;;18.60;77.32
25526;BME280;13424;48.424;11.258;2022-07-01T07:51:31;95815.56;;;18.51;78.06
25526;BME280;13424;48.424;11.258;2022-07-01T07:53:57;95813.84;;;18.65;78.60
25526;BME280;13424;48.424;11.258;2022-07-01T07:56:24;95822.91;;;18.11;78.10
25526;BME280;13424;48.424;11.258;2022-07-01T07:58:50;95827.84;;;17.99;78.97
25526;BME280;13424;48.424;11.258;2022-07-01T08:01:16;95829.91;;;18.18;78.77
25526;BME280;13424;48.424;11.258;2022-07-01T08:03:42;95836.66;;;17.66;80.09
25526;BME280;13424;48.424;11.258;2022-07-01T08:06:08;95833.81;;;17.96;79.13
25526;BME280;13424;48.424;11.258;2022-07-01T08:08:34;95848.13;;;17.37;79.65
25526;BME280;13424;48.424;11.258;2022-07-01T08:11:00;95847.59;;;17.35;79.33
25526;BME280;13424;48.424;11.258;2022-07-01T08:13:27;95858.03;;;17.52;79.53
25526;BME280;13424;48.424;11.258;2022-07-01T08:15:53;95869.72;;;17.32;80.62
25526;BME280;13424;48.424;11.258;2022-07-01T08:18:25;95867.88;;;17.17;80.78
25526;BME280;13424;48.424;11.258;2022-07-01T08:20:51;95870.56;;;17.22;80.10
25526;BME280;13424;48.424;11.258;2022-07-01T08:23:22;95874.38;;;17.11;80.94
25526;BME280;13424;48.424;11.258;2022-07-01T08:25:50;95882.44;;;17.16;79.72
25526;BME280;13424;48.424;11.258;2022-07-01T08:28:17;95881.97;;;16.89;79.50
25526;BME280;13424;48.424;11.258;2022-07-01T08:30:44;95891.91;;;17.09;79.30
25526;BME280;13424;48.424;11.258;2022-07-01T08:33:11;95899.91;;;17.34;79.66
25526;BME280;13424;48.424;11.258;2022-07-01T08:35:37;95903.75;;;17.02;80.32
25526;BME280;13424;48.424;11.258;2022-07-01T08:38:13;95908.59;;;17.11;80.29
25526;BME280;13424;48.424;11.258;2022-07-01T08:40:40;95909.41;;;16.65;83.17
25526;BME280;13424;48.424;11.258;2022-07-01T08:43:06;95918.59;;;16.64;82.83
25526;BME280;13424;48.424;11.258;2022-07-01T08:45:36;95927.22;;;16.71;83.02
25526;BME280;13424;48.424;11.258;2022-07-01T08:48:05;95925.34;;;16.52;85.02
25526;BME280;13424;48.424;11.258;2022-07-01T08:50:37;95911.88;;;16.77;82.45
25526;BME280;13424;48.424;11.258;2022-07-01T08:53:05;95909.66;;;17.20;82.14
25526;BME280;13424;48.424;11.258;2022-07-01T08:55:32;95916.38;;;17.33;83.01
25526;BME280;13424;48.424;11.258;2022-07-01T08:58:19;95904.78;;;17.22;83.28
25526;BME280;13424;48.424;11.258;2022-07-01T09:00:45;95902.06;;;17.32;83.17
25526;BME280;13424;48.424;11.258;2022-07-01T09:03:11;95894.75;;;17.38;84.15
25526;BME280;13424;48.424;11.258;2022-07-01T09:05:37;95903.72;;;17.23;83.93
25526;BME280;13424;48.424;11.258;2022-07-01T09:08:06;95911.25;;;17.31;82.56
25526;BME280;13424;48.424;11.258;2022-07-01T09:10:33;95917.06;;;17.58;82.66
25526;BME280;13424;48.424;11.258;2022-07-01T09:13:10;95915.00;;;17.40;82.91
25526;BME280;13424;48.424;11.258;2022-07-01T09:15:41;95916.03;;;17.54;84.46
25526;BME280;13424;48.424;11.258;2022-07-01T09:18:16;95909.09;;;17.98;82.16
25526;BME280;13424;48.424;11.258;2022-07-01T09:20:45;95909.09;;;18.42;78.82
25526;BME280;13424;48.424;11.258;2022-07-01T09:23:17;95903.47;;;17.94;80.05
25526;BME280;13424;48.424;11.258;2022-07-01T09:25:50;95909.34;;;18.01;79.48
25526;BME280;13424;48.424;11.258;2022-07-01T09:28:27;95915.69;;;18.26;80.15
25526;BME280;13424;48.424;11.258;2022-07-01T09:31:04;95924.38;;;18.57;80.34
25526;BME280;13424;48.424;11.258;2022-07-01T09:33:30;95913.13;;;18.39;81.07
25526;BME280;13424;48.424;11.258;2022-07-01T09:35:57;95905.34;;;17.94;80.15
25526;BME280;13424;48.424;11.258;2022-07-01T09:38:26;95925.34;;;18.32;81.05
25526;BME280;13424;48.424;11.258;2022-07-01T09:41:02;95919.59;;;18.04;79.84
25526;BME280;13424;48.424;11.258;2022-07-01T09:43:34;95918.06;;;17.88;79.99
25526;BME280;13424;48.424;11.258;2022-07-01T09:46:10;95920.59;;;18.13;81.67
25526;BME280;13424;48.424;11.258;2022-07-01T09:51:06;95928.47;;;18.10;81.49
25526;BME280;13424;48.424;11.258;2022-07-01T09:53:33;95925.94;;;18.24;81.78
25526;BME280;13424;48.424;11.258;2022-07-01T09:56:00;95927.38;;;17.41;81.83
25526;BME280;13424;48.424;11.258;2022-07-01T09:58:26;95929.78;;;18.18;83.08
25526;BME280;13424;48.424;11.258;2022-07-01T10:00:54;95929.88;;;17.97;80.74
25526;BME280;13424;48.424;11.258;2022-07-01T10:03:22;95930.97;;;17.91;82.55
25526;BME280;13424;48.424;11.258;2022-07-01T10:12:36;95949.13;;;17.75;80.05
25526;BME280;13424;48.424;11.258;2022-07-01T10:15:09;95954.28;;;17.72;79.62
25526;BME280;13424;48.424;11.258;2022-07-01T10:17:51;95955.78;;;17.98;80.46
25526;BME280;13424;48.424;11.258;2022-07-01T10:20:29;95962.16;;;18.18;78.66
25526;BME280;13424;48.424;11.258;2022-07-01T10:23:06;95960.41;;;18.37;81.24
25526;BME280;13424;48.424;11.258;2022-07-01T10:31:05;95966.56;;;18.03;79.35
25526;BME280;13424;48.424;11.258;2022-07-01T10:33:50;95969.84;;;17.95;80.31
25526;BME280;13424;48.424;11.258;2022-07-01T10:41:34;95977.50;;;18.27;79.52
25526;BME280;13424;48.424;11.258;2022-07-01T10:44:11;95970.94;;;17.89;80.81
25526;BME280;13424;48.424;11.258;2022-07-01T10:46:55;95961.34;;;18.56;79.93
25526;BME280;13424;48.424;11.258;2022-07-01T10:50:17;95969.16;;;18.63;78.97
25526;BME280;13424;48.424;11.258;2022-07-01T10:53:03;95977.19;;;18.34;77.57
25526;BME280;13424;48.424;11.258;2022-07-01T10:55:38;95977.88;;;18.00;78.77
25526;BME280;13424;48.424;11.258;2022-07-01T10:58:06;95971.94;;;18.03;78.26
25526;BME280;13424;48.424;11.258;2022-07-01T11:00:34;95980.28;;;18.12;78.08
25526;BME280;13424;48.424;11.258;2022-07-01T11:03:11;95980.66;;;17.85;79.66
25526;BME280;13424;48.424;11.258;2022-07-01T11:05:42;95983.31;;;17.95;79.04
25526;BME280;13424;48.424;11.258;2022-07-01T11:08:09;95988.53;;;17.61;79.15
25526;BME280;13424;48.424;11.258;2022-07-01T11:11:23;95969.19;;;17.34;80.37
25526;BME280;13424;48.424;11.258;2022-07-01T11:13:50;95979.97;;;17.34;80.50
25526;BME280;13424;48.424;11.258;2022-07-01T11:16:16;95983.06;;;17.92;79.47
25526;BME280;13424;48.424;11.258;2022-07-01T11:18:42;95999.28;;;17.87;79.73
25526;BME280;13424;48.424;11.258;2022-07-01T11:21:09;95986.91;;;17.65;79.70
25526;BME280;13424;48.424;11.258;2022-07-01T11:23:36;95984.59;;;18.08;80.97
25526;BME280;13424;48.424;11.258;2022-07-01T11:26:02;95998.19;;;17.88;79.93
25526;BME280;13424;48.424;11.258;2022-07-01T11:28:28;95988.09;;;18.13;79.95
25526;BME280;13424;48.424;11.258;2022-07-01T11:31:01;95992.75;;;18.03;79.13
25526;BME280;13424;48.424;11.258;2022-07-01T11:33:37;95983.22;;;18.16;77.36
25526;BME280;13424;48.424;11.258;2022-07-01T11:36:05;95985.34;;;18.73;77.88
25526;BME280;13424;48.424;11.258;2022-07-01T11:38:50;95977.09;;;18.88;76.54
25526;BME280;13424;48.424;11.258;2022-07-01T11:41:34;95986.44;;;19.01;76.56
25526;BME280;13424;48.424;11.258;2022-07-01T11:44:00;95975.94;;;18.60;77.13
25526;BME280;13424;48.424;11.258;2022-07-01T11:46:31;95980.69;;;18.79;77.89
25526;BME280;13424;48.424;11.258;2022-07-01T11:48:57;95991.38;;;18.94;77.78
25526;BME280;13424;48.424;11.258;2022-07-01T11:51:25;96000.72;;;19.07;75.69
25526;BME280;13424;48.424;11.258;2022-07-01T11:53:56;95991.44;;;18.89;75.28
25526;BME280;13424;48.424;11.258;2022-07-01T11:56:36;95992.97;;;18.95;75.17
25526;BME280;13424;48.424;11.258;2022-07-01T11:59:08;95986.59;;;19.15;75.78
25526;BME280;13424;48.424;11.258;2022-07-01T12:05:59;95972.66;;;18.68;76.00
25526;BME280;13424;48.424;11.258;2022-07-01T12:08:26;95979.63;;;18.75;74.62
25526;BME280;13424;48.424;11.258;2022-07-01T12:10:53;95997.34;;;18.47;73.77
25526;BME280;13424;48.424;11.258;2022-07-01T12:13:25;96008.94;;;18.47;75.23
25526;BME280;13424;48.424;11.258;2022-07-01T12:15:52;96013.97;;;18.74;74.98
25526;BME280;13424;48.424;11.258;2022-07-01T12:18:19;96016.66;;;18.25;76.42
25526;BME280;13424;48.424;11.258;2022-07-01T12:20:53;96011.97;;;17.81;77.84
25526;BME280;13424;48.424;11.258;2022-07-01T12:23:20;96029.19;;;17.95;76.98
25526;BME280;13424;48.424;11.258;2022-07-01T12:25:49;96037.28;;;17.90;76.68
25526;BME280;13424;48.424;11.258;2022-07-01T12:28:38;96034.66;;;17.75;78.15
25526;BME280;13424;48.424;11.258;2022-07-01T12:31:08;96045.38;;;17.95;77.64
25526;BME280;13424;48.424;11.258;2022-07-01T12:33:44;96064.84;;;17.87;79.19
25526;BME280;13424;48.424;11.258;2022-07-01T12:36:57;96063.66;;;18.13;78.39
25526;BME280;13424;48.424;11.258;2022-07-01T12:39:23;96079.66;;;17.90;80.51
25526;BME280;13424;48.424;11.258;2022-07-01T12:41:51;96078.81;;;18.09;79.53
25526;BME280;13424;48.424;11.258;2022-07-01T12:48:48;96102.34;;;17.94;81.79
25526;BME280;13424;48.424;11.258;2022-07-01T12:51:15;96104.16;;;18.08;82.20
25526;BME280;13424;48.424;11.258;2022-07-01T12:53:41;96122.53;;;18.06;82.46
25526;BME280;13424;48.424;11.258;2022-07-01T12:56:07;96111.00;;;17.75;81.09
25526;BME280;13424;48.424;11.258;2022-07-01T12:58:34;96108.53;;;17.69;81.04
25526;BME280;13424;48.424;11.258;2022-07-01T13:01:02;96093.44;;;17.68;80.74
25526;BME280;13424;48.424;11.258;2022-07-01T13:03:28;96089.94;;;17.82;81.92
25526;BME280;13424;48.424;11.258;2022-07-01T13:06:31;96081.84;;;17.88;83.29
25526;BME280;13424;48.424;11.258;2022-07-01T13:08:57;96082.41;;;17.79;83.32
25526;BME280;13424;48.424;11.258;2022-07-01T13:11:23;96068.59;;;17.91;82.67
25526;BME280;13424;48.424;11.258;2022-07-01T13:13:49;96054.56;;;17.84;82.95
25526;BME280;13424;48.424;11.258;2022-07-01T13:16:15;96029.84;;;16.70;86.10
25526;BME280;13424;48.424;11.258;2022-07-01T13:18:41;96018.50;;;17.54;85.55
25526;BME280;13424;48.424;11.258;2022-07-01T13:21:07;96018.75;;;17.58;82.65
25526;BME280;13424;48.424;11.258;2022-07-01T13:23:33;96020.59;;;17.83;81.77
25526;BME280;13424;48.424;11.258;2022-07-01T13:25:59;96028.69;;;17.88;81.73
25526;BME280;13424;48.424;11.258;2022-07-01T13:28:25;96026.38;;;18.21;82.16
25526;BME280;13424;48.424;11.258;2022-07-01T13:30:51;96028.50;;;18.24;82.07
25526;BME280;13424;48.424;11.258;2022-07-01T13:33:17;96020.06;;;17.81;82.95
25526;BME280;13424;48.424;11.258;2022-07-01T13:40:09;96008.28;;;18.26;80.81
25526;BME280;13424;48.424;11.258;2022-07-01T13:42:37;96013.25;;;18.04;79.22
25526;BME280;13424;48.424;11.258;2022-07-01T13:45:05;96049.59;;;18.22;80.75
25526;BME280;13424;48.424;11.258;2022-07-01T13:47:32;96068.41;;;18.42;78.27
25526;BME280;13424;48.424;11.258;2022-07-01T13:49:58;96067.84;;;17.70;79.81
25526;BME280;13424;48.424;11.258;2022-07-01T13:52:24;96080.00;;;17.47;81.42
25526;BME280;13424;48.424;11.258;2022-07-01T13:54:55;96090.78;;;17.32;82.22
25526;BME280;13424;48.424;11.258;2022-07-01T13:57:22;96116.38;;;17.45;82.90
25526;BME280;13424;48.424;11.258;2022-07-01T13:59:48;96124.75;;;17.38;83.82